createdAt,value
2023-05-10T00:04:11.183Z,99
2023-05-10T00:09:12.630Z,99
2023-05-10T00:13:59.107Z,99
2023-05-10T00:18:59.131Z,99
2023-05-10T00:23:58.715Z,99
2023-05-10T00:28:59.719Z,100
2023-05-10T00:33:56.449Z,100
2023-05-10T00:38:56.562Z,100
2023-05-10T00:43:55.919Z,100
2023-05-10T00:48:55.984Z,100
2023-05-10T00:53:53.286Z,100
2023-05-10T00:58:52.992Z,100
2023-05-10T01:03:52.237Z,100
2023-05-10T01:08:51.826Z,100
2023-05-10T01:13:50.027Z,100
2023-05-10T01:18:50.589Z,100
2023-05-10T01:23:49.909Z,100
2023-05-10T01:28:49.514Z,100
2023-05-10T01:42:36.552Z,99
2023-05-10T01:48:46.617Z,100
2023-05-10T01:53:45.963Z,100
2023-05-10T01:58:45.673Z,100
2023-05-10T02:05:16.475Z,100
2023-05-10T02:15:15.647Z,100
2023-05-10T02:20:15.694Z,99
2023-05-10T02:25:16.717Z,99
2023-05-10T02:30:14.011Z,99
2023-05-10T02:35:13.655Z,99
2023-05-10T02:40:15.394Z,99
2023-05-10T02:45:11.996Z,99
2023-05-10T02:50:12.295Z,99
2023-05-10T02:55:13.765Z,99
2023-05-10T02:59:22.708Z,99
2023-05-10T03:04:22.732Z,99
2023-05-10T03:09:22.301Z,99
2023-05-10T03:19:19.650Z,98
2023-05-10T03:24:19.543Z,98
2023-05-10T03:29:18.888Z,98
2023-05-10T03:34:18.792Z,98
2023-05-10T03:39:16.404Z,98
2023-05-10T03:44:16.381Z,98
2023-05-10T03:49:15.662Z,98
2023-05-10T03:54:15.216Z,98
2023-05-10T03:59:13.402Z,98
2023-05-10T04:04:13.772Z,99
2023-05-10T04:09:13.728Z,99
2023-05-10T04:14:14.272Z,99
2023-05-10T04:19:11.443Z,99
2023-05-10T04:24:10.715Z,99
2023-05-10T04:28:59.534Z,99
2023-05-10T04:33:59.047Z,99
2023-05-10T04:38:59.067Z,99
2023-05-10T04:43:58.801Z,99
2023-05-10T04:48:59.885Z,99
2023-05-10T04:54:06.323Z,99
2023-05-10T04:58:56.390Z,99
2023-05-10T05:04:48.346Z,99
2023-05-10T05:08:55.199Z,99
2023-05-10T05:13:53.493Z,99
2023-05-10T05:18:54.331Z,99
2023-05-10T05:23:53.965Z,98
2023-05-10T05:28:51.421Z,98
2023-05-10T05:33:51.262Z,98
2023-05-10T05:38:51.525Z,98
2023-05-10T05:43:51.363Z,98
2023-05-10T05:48:50.954Z,98
2023-05-10T05:53:50.304Z,98
2023-05-10T05:58:50.230Z,97
2023-05-10T06:03:51.853Z,97
2023-05-10T06:08:47.663Z,96
2023-05-10T06:13:47.483Z,96
2023-05-10T06:18:46.737Z,95
2023-05-10T06:23:46.500Z,95
2023-05-10T06:28:46.080Z,94
2023-05-10T06:33:45.679Z,93
2023-05-10T06:38:45.977Z,93
2023-05-10T06:43:45.540Z,93
2023-05-10T06:48:46.599Z,92
2023-05-10T06:53:43.171Z,91
2023-05-10T06:58:43.086Z,91
2023-05-10T07:05:16.835Z,90
2023-05-10T07:10:13.657Z,89
2023-05-10T07:15:13.449Z,88
2023-05-10T07:20:14.887Z,89
2023-05-10T07:25:11.892Z,89
2023-05-10T07:30:11.697Z,88
2023-05-10T07:35:11.513Z,87
2023-05-10T07:39:59.290Z,86
2023-05-10T07:44:58.870Z,86
2023-05-10T07:49:58.892Z,85
2023-05-10T07:54:59.796Z,86
2023-05-10T08:04:20.531Z,85
2023-05-10T08:09:19.719Z,84
2023-05-10T08:14:19.582Z,85
2023-05-10T08:19:17.124Z,85
2023-05-10T08:24:16.905Z,84
2023-05-10T08:29:17.105Z,84
2023-05-10T08:34:16.895Z,81
2023-05-10T08:39:29.662Z,81
2023-05-10T08:44:15.747Z,81
2023-05-10T08:49:15.835Z,80
2023-05-10T08:54:15.390Z,79
2023-05-10T08:59:13.070Z,79
2023-05-10T09:04:00.040Z,78
2023-05-10T09:09:00.121Z,78
2023-05-10T09:13:59.182Z,80
2023-05-10T09:19:00.310Z,78
2023-05-10T09:23:58.982Z,79
2023-05-10T09:28:56.647Z,80
2023-05-10T09:33:56.137Z,79
2023-05-10T09:38:55.579Z,78
2023-05-10T09:43:55.479Z,75
2023-05-10T09:48:55.565Z,75
2023-05-10T09:53:54.831Z,75
2023-05-10T09:58:55.857Z,74
2023-05-10T10:03:52.295Z,75
2023-05-10T10:08:52.458Z,75
2023-05-10T10:13:51.668Z,75
2023-05-10T10:18:51.775Z,73
2023-05-10T10:23:49.243Z,72
2023-05-10T10:28:49.039Z,72
2023-05-10T10:33:48.468Z,72
2023-05-10T10:38:48.078Z,72
2023-05-10T10:43:47.597Z,70
2023-05-10T10:48:47.629Z,68
2023-05-10T10:53:47.857Z,70
2023-05-10T10:58:47.357Z,69
2023-05-10T11:05:08.778Z,69
2023-05-10T11:10:08.632Z,69
2023-05-10T11:15:08.216Z,69
2023-05-10T11:20:07.547Z,69
2023-05-10T11:25:07.295Z,68
2023-05-10T11:30:07.385Z,66
2023-05-10T11:35:06.846Z,66
2023-05-10T11:40:18.399Z,67
2023-05-10T11:45:15.113Z,65
2023-05-10T11:50:14.884Z,66
2023-05-10T11:55:16.409Z,66
2023-05-10T11:59:16.901Z,64
2023-05-10T12:04:17.264Z,63
2023-05-10T12:09:21.007Z,63
2023-05-10T12:14:14.614Z,62
2023-05-10T12:19:14.660Z,59
2023-05-10T12:24:16.145Z,59
2023-05-10T12:29:13.091Z,58
2023-05-10T12:34:13.415Z,60
2023-05-10T12:39:14.829Z,59
2023-05-10T12:44:11.800Z,56
2023-05-10T12:49:19.554Z,57
2023-05-10T12:54:13.369Z,57
2023-05-10T12:58:59.906Z,57
2023-05-10T13:03:59.786Z,55
2023-05-10T13:08:59.246Z,55
2023-05-10T13:13:58.994Z,54
2023-05-10T13:18:56.516Z,54
2023-05-10T13:23:56.105Z,55
2023-05-10T13:28:55.250Z,55
2023-05-10T13:33:54.880Z,55
2023-05-10T13:38:54.354Z,53
2023-05-10T13:43:53.696Z,53
2023-05-10T13:48:53.833Z,55
2023-05-10T13:53:53.236Z,55
2023-05-10T13:58:54.130Z,56
2023-05-10T14:03:50.870Z,57
2023-05-10T14:08:50.165Z,56
2023-05-10T14:13:50.095Z,55
2023-05-10T14:18:49.503Z,56
2023-05-10T14:23:48.853Z,57
2023-05-10T14:28:49.357Z,57
2023-05-10T14:33:48.352Z,58
2023-05-10T14:38:49.589Z,59
2023-05-10T14:43:46.055Z,58
2023-05-10T14:48:46.300Z,57
2023-05-10T14:53:45.785Z,56
2023-05-10T14:58:45.783Z,55
2023-05-10T15:05:07.155Z,55
2023-05-10T15:10:17.190Z,56
2023-05-10T15:15:07.099Z,57
2023-05-10T15:20:14.712Z,57
2023-05-10T15:25:15.102Z,57
2023-05-10T15:30:14.752Z,59
2023-05-10T15:35:13.847Z,59
2023-05-10T15:40:14.075Z,56
2023-05-10T15:45:13.482Z,59
2023-05-10T15:50:11.948Z,58
2023-05-10T15:55:12.698Z,58
2023-05-10T16:09:21.173Z,56
2023-05-10T16:19:20.270Z,59
2023-05-10T16:24:19.971Z,58
2023-05-10T16:29:17.495Z,61
2023-05-10T16:34:17.136Z,64
2023-05-10T16:39:16.426Z,65
2023-05-10T16:44:16.502Z,66
2023-05-10T16:49:15.094Z,66
2023-05-10T16:54:14.365Z,65
2023-05-10T16:59:12.099Z,63
2023-05-10T17:04:12.461Z,58
2023-05-10T17:08:59.404Z,58
2023-05-10T17:13:59.025Z,59
2023-05-10T17:18:59.772Z,60
2023-05-10T17:23:58.983Z,61
2023-05-10T17:28:56.975Z,63
2023-05-10T17:33:57.169Z,64
2023-05-10T17:38:56.315Z,65
2023-05-10T17:43:55.932Z,65
2023-05-10T17:48:53.338Z,66
2023-05-10T17:53:52.987Z,66
2023-05-10T17:58:52.493Z,67
2023-05-10T18:30:10.642Z,70
2023-05-10T18:40:09.626Z,71
2023-05-10T18:50:16.878Z,71
2023-05-10T18:55:07.033Z,71
2023-05-10T19:04:26.348Z,71
2023-05-10T19:09:25.852Z,72
2023-05-10T19:19:25.439Z,72
2023-05-10T19:24:26.347Z,72
2023-05-10T19:34:22.742Z,72
2023-05-10T19:39:21.886Z,72
2023-05-10T19:49:19.249Z,72
2023-05-10T19:54:19.390Z,73
2023-05-10T20:04:17.867Z,74
2023-05-10T20:09:14.811Z,74
2023-05-10T20:19:14.480Z,75
2023-05-10T20:24:12.469Z,75
2023-05-10T20:34:12.940Z,76
2023-05-10T20:39:11.711Z,76
2023-05-10T20:49:11.852Z,77
2023-05-10T20:53:59.699Z,77
2023-05-10T20:58:59.546Z,78
2023-05-10T21:03:58.932Z,78
2023-05-10T21:08:58.420Z,78
2023-05-10T21:13:57.797Z,79
2023-05-10T21:18:57.251Z,79
2023-05-10T21:23:57.301Z,79
2023-05-10T21:28:56.672Z,80
2023-05-10T21:33:58.055Z,80
2023-05-10T21:38:54.484Z,81
2023-05-10T21:43:54.047Z,81
2023-05-10T21:48:53.557Z,81
2023-05-10T21:53:53.112Z,81
2023-05-10T21:58:50.577Z,81
2023-05-10T22:03:50.367Z,81
2023-05-10T22:08:49.491Z,81
2023-05-10T22:13:49.511Z,81
2023-05-10T22:18:48.462Z,81
2023-05-10T22:23:48.830Z,81
2023-05-10T22:28:48.079Z,81
2023-05-10T22:33:47.973Z,81
2023-05-10T22:38:45.754Z,82
2023-05-10T22:43:45.278Z,82
2023-05-10T22:48:45.570Z,82
2023-05-10T22:53:45.083Z,83
2023-05-10T22:58:44.145Z,83
2023-05-10T23:05:15.217Z,83
2023-05-10T23:10:16.533Z,84
2023-05-10T23:15:13.342Z,84
2023-05-10T23:20:12.907Z,84
2023-05-10T23:25:54.622Z,85
2023-05-10T23:30:14.131Z,85
2023-05-10T23:35:12.446Z,85
2023-05-10T23:40:13.925Z,85
2023-05-10T23:45:11.156Z,86
2023-05-10T23:50:10.603Z,86
2023-05-10T23:55:12.199Z,86
